Time;durP1;ratioP1;P1;durP2;ratioP2;P2;SDS_P1;SDS_P2;PMS_P1;PMS_P2;Temp;Humidity;BMP_temperature;BMP_pressure;BME280_temperature;BME280_humidity;BME280_pressure;Samples;Min_cycle;Max_cycle;Signal;HPM_P1;HPM_P2
2020/02/18 00:01:02;;;;;;;3.7;1.2;;;;;;;;;;;;;
2020/02/18 00:03:27;;;;;;;3.5;1.2;;;;;;;;;;;;;
2020/02/18 00:05:52;;;;;;;3.2;1.2;;;;;;;;;;;;;
2020/02/18 00:08:17;;;;;;;5.5;1.4;;;;;;;;;;;;;
2020/02/18 00:10:42;;;;;;;3.3;1.2;;;;;;;;;;;;;
2020/02/18 00:13:08;;;;;;;3.2;1.2;;;;;;;;;;;;;
2020/02/18 00:15:33;;;;;;;4.6;1.2;;;;;;;;;;;;;
2020/02/18 00:17:58;;;;;;;4.2;1.3;;;;;;;;;;;;;
2020/02/18 00:20:23;;;;;;;3.4;1.2;;;;;;;;;;;;;
2020/02/18 00:22:48;;;;;;;4.6;1.2;;;;;;;;;;;;;
2020/02/18 00:25:13;;;;;;;4.4;1.5;;;;;;;;;;;;;
2020/02/18 00:27:38;;;;;;;4.3;1.2;;;;;;;;;;;;;
2020/02/18 00:30:03;;;;;;;3;1.2;;;;;;;;;;;;;
2020/02/18 00:32:28;;;;;;;4.8;1.5;;;;;;;;;;;;;
2020/02/18 00:34:54;;;;;;;4.5;1.4;;;;;;;;;;;;;
2020/02/18 00:37:19;;;;;;;5.7;1.5;;;;;;;;;;;;;
2020/02/18 00:39:44;;;;;;;3.8;1.2;;;;;;;;;;;;;
2020/02/18 00:42:09;;;;;;;3.2;1.3;;;;;;;;;;;;;
2020/02/18 00:44:34;;;;;;;5.9;1.5;;;;;;;;;;;;;
2020/02/18 00:46:59;;;;;;;4.6;1.3;;;;;;;;;;;;;
2020/02/18 00:49:24;;;;;;;5.9;1.2;;;;;;;;;;;;;
2020/02/18 00:51:49;;;;;;;5.2;1.4;;;;;;;;;;;;;
2020/02/18 00:54:14;;;;;;;3.8;1.3;;;;;;;;;;;;;
2020/02/18 00:56:40;;;;;;;4;1.3;;;;;;;;;;;;;
2020/02/18 00:59:05;;;;;;;4.9;1.3;;;;;;;;;;;;;
2020/02/18 01:01:30;;;;;;;5;1.2;;;;;;;;;;;;;
2020/02/18 01:03:55;;;;;;;4.8;1.5;;;;;;;;;;;;;
2020/02/18 01:06:25;;;;;;;4.9;1.8;;;;;;;;;;;;;
2020/02/18 01:13:45;;;;;;;4.2;1.5;;;;;;;;;;;;;
2020/02/18 01:16:04;;;;;;;4.8;1.3;;;;;;;;;;;;;
2020/02/18 01:18:26;;;;;;;5.1;1.5;;;;;;;;;;;;;
2020/02/18 01:20:51;;;;;;;4.8;1.5;;;;;;;;;;;;;
2020/02/18 01:23:16;;;;;;;7.5;1.8;;;;;;;;;;;;;
2020/02/18 01:25:41;;;;;;;5.7;1.5;;;;;;;;;;;;;
2020/02/18 01:28:06;;;;;;;6.6;1.6;;;;;;;;;;;;;
2020/02/18 01:30:31;;;;;;;4.5;1.5;;;;;;;;;;;;;
2020/02/18 01:32:56;;;;;;;7.4;1.5;;;;;;;;;;;;;
2020/02/18 01:35:21;;;;;;;5.7;1.5;;;;;;;;;;;;;
2020/02/18 01:37:47;;;;;;;4.9;1.8;;;;;;;;;;;;;
2020/02/18 01:40:12;;;;;;;5.6;1.3;;;;;;;;;;;;;
2020/02/18 01:42:37;;;;;;;5.1;1.3;;;;;;;;;;;;;
2020/02/18 01:45:02;;;;;;;5;1.4;;;;;;;;;;;;;
2020/02/18 01:47:27;;;;;;;5.1;1.5;;;;;;;;;;;;;
2020/02/18 01:49:52;;;;;;;5.7;1.4;;;;;;;;;;;;;
2020/02/18 01:52:17;;;;;;;4.6;1.4;;;;;;;;;;;;;
2020/02/18 01:54:42;;;;;;;3.3;1.2;;;;;;;;;;;;;
2020/02/18 01:57:07;;;;;;;4.2;1.4;;;;;;;;;;;;;
2020/02/18 01:59:32;;;;;;;4.9;1.3;;;;;;;;;;;;;
2020/02/18 02:01:58;;;;;;;5.8;1.7;;;;;;;;;;;;;
2020/02/18 02:04:23;;;;;;;5.4;1.7;;;;;;;;;;;;;
2020/02/18 02:06:48;;;;;;;6.1;1.6;;;;;;;;;;;;;
2020/02/18 02:09:13;;;;;;;5.7;2;;;;;;;;;;;;;
2020/02/18 02:11:38;;;;;;;4.7;1.3;;;;;;;;;;;;;
2020/02/18 02:14:03;;;;;;;5.4;1.6;;;;;;;;;;;;;
2020/02/18 02:16:28;;;;;;;6.8;1.9;;;;;;;;;;;;;
2020/02/18 02:18:53;;;;;;;5.1;1.3;;;;;;;;;;;;;
2020/02/18 02:21:24;;;;;;;5.1;1.5;;;;;;;;;;;;;
2020/02/18 02:24:07;;;;;;;5.2;1.7;;;;;;;;;;;;;
2020/02/18 02:26:32;;;;;;;5.6;1.4;;;;;;;;;;;;;
2020/02/18 02:28:57;;;;;;;4.6;1.6;;;;;;;;;;;;;
2020/02/18 02:31:22;;;;;;;4.2;1.5;;;;;;;;;;;;;
2020/02/18 02:33:47;;;;;;;4.7;1.4;;;;;;;;;;;;;
2020/02/18 02:36:12;;;;;;;5.2;1.6;;;;;;;;;;;;;
2020/02/18 02:38:37;;;;;;;3.7;1.2;;;;;;;;;;;;;
2020/02/18 02:41:02;;;;;;;5.3;1.4;;;;;;;;;;;;;
2020/02/18 02:43:28;;;;;;;4.1;1.2;;;;;;;;;;;;;
2020/02/18 02:45:53;;;;;;;4;1.4;;;;;;;;;;;;;
2020/02/18 02:48:18;;;;;;;5.3;1.3;;;;;;;;;;;;;
2020/02/18 02:50:43;;;;;;;4.4;1.2;;;;;;;;;;;;;
2020/02/18 02:53:08;;;;;;;4.9;1.3;;;;;;;;;;;;;
2020/02/18 02:55:33;;;;;;;5.2;1.5;;;;;;;;;;;;;
2020/02/18 02:57:58;;;;;;;6.2;1.7;;;;;;;;;;;;;
2020/02/18 03:00:36;;;;;;;5.5;1.5;;;;;;;;;;;;;
2020/02/18 03:02:50;;;;;;;5.1;1.2;;;;;;;;;;;;;
2020/02/18 03:05:15;;;;;;;5.5;1.5;;;;;;;;;;;;;
2020/02/18 03:07:48;;;;;;;4.8;1.8;;;;;;;;;;;;;
2020/02/18 03:19:50;;;;;;;6.3;1.6;;;;;;;;;;;;;
2020/02/18 03:22:11;;;;;;;3.8;1.4;;;;;;;;;;;;;
2020/02/18 03:24:36;;;;;;;5.2;1.3;;;;;;;;;;;;;
2020/02/18 03:27:01;;;;;;;4.2;1.2;;;;;;;;;;;;;
2020/02/18 03:29:26;;;;;;;4.9;1.4;;;;;;;;;;;;;
2020/02/18 03:31:51;;;;;;;4.2;1.3;;;;;;;;;;;;;
2020/02/18 03:34:17;;;;;;;6.2;1.4;;;;;;;;;;;;;
2020/02/18 03:36:42;;;;;;;3.8;1.4;;;;;;;;;;;;;
2020/02/18 03:39:07;;;;;;;4.1;1.6;;;;;;;;;;;;;
2020/02/18 03:41:32;;;;;;;5.4;1.3;;;;;;;;;;;;;
2020/02/18 03:43:57;;;;;;;4.6;1.5;;;;;;;;;;;;;
2020/02/18 03:46:22;;;;;;;5.9;1.3;;;;;;;;;;;;;
2020/02/18 03:48:47;;;;;;;5.1;1.3;;;;;;;;;;;;;
2020/02/18 03:51:12;;;;;;;5;1.6;;;;;;;;;;;;;
2020/02/18 03:53:38;;;;;;;4.8;1.6;;;;;;;;;;;;;
2020/02/18 03:56:05;;;;;;;4.9;1.4;;;;;;;;;;;;;
2020/02/18 03:58:28;;;;;;;5.2;1.6;;;;;;;;;;;;;
2020/02/18 04:02:27;;;;;;;4.9;1.5;;;;;;;7.38;83.54004;1011.805;;;;
2020/02/18 04:04:52;;;;;;;5;1.4;;;;;;;7.44;83.34766;1011.806;;;;
2020/02/18 04:07:17;;;;;;;6;1.3;;;;;;;7.51;83.07324;1011.764;;;;
2020/02/18 04:09:42;;;;;;;3.5;1.3;;;;;;;7.47;82.71582;1011.865;;;;
2020/02/18 04:12:08;;;;;;;4.3;1.4;;;;;;;7.47;82.68164;1011.786;;;;
2020/02/18 04:14:33;;;;;;;4;1.6;;;;;;;7.46;82.89648;1011.842;;;;
2020/02/18 04:16:58;;;;;;;4.2;1.2;;;;;;;7.47;83.21582;1011.871;;;;
2020/02/18 04:19:23;;;;;;;5;1.4;;;;;;;7.48;83.08105;1011.834;;;;
2020/02/18 04:21:49;;;;;;;3.9;1.4;;;;;;;7.46;83.28125;1011.832;;;;
2020/02/18 04:24:13;;;;;;;5.6;1.3;;;;;;;7.53;82.93262;1011.851;;;;
2020/02/18 04:26:38;;;;;;;6.6;1.4;;;;;;;7.58;81.96191;1011.928;;;;
2020/02/18 04:29:04;;;;;;;3.5;1.4;;;;;;;7.47;82.56836;1011.942;;;;
2020/02/18 04:31:29;;;;;;;4.6;1.6;;;;;;;7.53;81.71484;1011.913;;;;
2020/02/18 04:33:54;;;;;;;4.4;1.4;;;;;;;7.5;82.0957;1011.923;;;;
2020/02/18 04:36:19;;;;;;;6;1.5;;;;;;;7.59;81.88574;1011.943;;;;
2020/02/18 04:38:44;;;;;;;4.7;1.6;;;;;;;7.56;81.81055;1011.914;;;;
2020/02/18 04:41:09;;;;;;;5.4;1.5;;;;;;;7.58;81.72461;1011.938;;;;
2020/02/18 04:43:34;;;;;;;5.3;1.3;;;;;;;7.79;80.76367;1011.928;;;;
2020/02/18 04:46:04;;;;;;;4.7;1.3;;;;;;;7.64;81.08691;1011.907;;;;
2020/02/18 04:49:25;;;;;;;3.4;1.2;;;;;;;7.79;80.34277;1011.982;;;;
2020/02/18 04:50:50;;;;;;;4.5;1.2;;;;;;;7.71;80.62305;1012.031;;;;
2020/02/18 04:53:15;;;;;;;5.4;1.3;;;;;;;7.68;80.24121;1012.098;;;;
2020/02/18 04:55:40;;;;;;;4.5;1.3;;;;;;;7.75;79.74414;1012.062;;;;
2020/02/18 04:58:05;;;;;;;3.9;1.3;;;;;;;7.74;79.6748;1012.108;;;;
2020/02/18 05:00:30;;;;;;;6.8;1.8;;;;;;;7.62;78.7998;1012.207;;;;
2020/02/18 05:02:55;;;;;;;4.4;1.4;;;;;;;7.67;78.6377;1012.177;;;;
2020/02/18 05:05:20;;;;;;;4.8;1.3;;;;;;;7.7;78.04004;1012.119;;;;
2020/02/18 05:07:46;;;;;;;5.1;1.4;;;;;;;7.67;78.24902;1012.121;;;;
2020/02/18 05:10:10;;;;;;;5.6;1.4;;;;;;;7.68;78.2627;1012.187;;;;
2020/02/18 05:12:36;;;;;;;4.7;1.3;;;;;;;7.65;78.52051;1012.19;;;;
2020/02/18 05:15:01;;;;;;;3.7;1.5;;;;;;;7.7;78.08496;1012.217;;;;
2020/02/18 05:17:26;;;;;;;3.9;1.4;;;;;;;7.73;78.5791;1012.176;;;;
2020/02/18 05:19:51;;;;;;;6.9;1.8;;;;;;;7.65;78.55469;1012.26;;;;
2020/02/18 05:22:16;;;;;;;5.8;1.7;;;;;;;7.67;78.54688;1012.057;;;;
2020/02/18 05:24:41;;;;;;;6.1;1.6;;;;;;;7.75;78.73242;1012.283;;;;
2020/02/18 05:27:06;;;;;;;5.2;1.6;;;;;;;7.57;79.07422;1012.321;;;;
2020/02/18 05:29:32;;;;;;;5.8;1.6;;;;;;;7.6;79;1012.373;;;;
2020/02/18 05:31:57;;;;;;;5.3;1.6;;;;;;;7.62;78.61816;1012.432;;;;
2020/02/18 05:34:22;;;;;;;4.7;1.7;;;;;;;7.6;78.81738;1012.514;;;;
2020/02/18 05:36:47;;;;;;;4.4;1.6;;;;;;;7.66;77.73633;1012.371;;;;
2020/02/18 05:39:12;;;;;;;6.1;1.3;;;;;;;7.69;78.21973;1012.356;;;;
2020/02/18 05:41:37;;;;;;;5.4;1.8;;;;;;;7.58;78.90527;1012.383;;;;
2020/02/18 05:44:02;;;;;;;4;1.4;;;;;;;7.55;78.94434;1012.474;;;;
2020/02/18 05:46:27;;;;;;;6;1.5;;;;;;;7.59;78.96387;1012.412;;;;
2020/02/18 05:48:52;;;;;;;5.8;1.4;;;;;;;7.54;79.16992;1012.547;;;;
2020/02/18 05:51:17;;;;;;;4.7;1.5;;;;;;;7.51;78.72168;1012.437;;;;
2020/02/18 05:53:43;;;;;;;4.2;1.5;;;;;;;7.49;78.20508;1012.458;;;;
2020/02/18 05:56:08;;;;;;;8.3;1.8;;;;;;;7.6;77.93066;1012.283;;;;
2020/02/18 05:58:33;;;;;;;4.7;1.3;;;;;;;7.46;78.45215;1012.487;;;;
2020/02/18 06:00:58;;;;;;;3.7;1.4;;;;;;;7.47;78.37402;1012.514;;;;
2020/02/18 06:03:23;;;;;;;4;1.3;;;;;;;7.59;77.88574;1012.591;;;;
2020/02/18 06:05:48;;;;;;;4.2;1.5;;;;;;;7.56;77.91309;1012.574;;;;
2020/02/18 06:08:13;;;;;;;4.8;1.5;;;;;;;7.57;77.55078;1012.534;;;;
2020/02/18 06:10:38;;;;;;;5.9;1.7;;;;;;;7.57;77.5957;1012.611;;;;
2020/02/18 06:13:03;;;;;;;4.5;1.3;;;;;;;7.48;77.58008;1012.681;;;;
2020/02/18 06:15:34;;;;;;;5.9;1.5;;;;;;;7.46;78.0293;1012.755;;;;
2020/02/18 06:18:03;;;;;;;6.5;1.5;;;;;;;7.51;77.14258;1012.711;;;;
2020/02/18 06:20:24;;;;;;;5.3;1.3;;;;;;;7.55;77.11328;1012.72;;;;
2020/02/18 06:22:44;;;;;;;6.1;1.7;;;;;;;7.5;77.04883;1012.809;;;;
2020/02/18 06:25:09;;;;;;;5;1.2;;;;;;;7.55;76.49023;1012.852;;;;
2020/02/18 06:27:34;;;;;;;5.1;1.7;;;;;;;7.49;76.69531;1012.952;;;;
2020/02/18 06:29:59;;;;;;;5;1.4;;;;;;;7.46;76.37207;1013.037;;;;
2020/02/18 06:32:29;;;;;;;5.1;1.3;;;;;;;7.5;76.34375;1013.024;;;;
2020/02/18 06:37:15;;;;;;;5.3;1.3;;;;;;;7.51;76.37012;1013.078;;;;
2020/02/18 06:39:40;;;;;;;7.7;1.9;;;;;;;7.47;76.60059;1013.093;;;;
2020/02/18 06:42:05;;;;;;;5.4;1.5;;;;;;;7.41;76.62305;1013.09;;;;
2020/02/18 06:44:31;;;;;;;6;2.3;;;;;;;7.49;76.86523;1013.089;;;;
2020/02/18 06:46:56;;;;;;;3.7;1.5;;;;;;;7.63;76.15039;1012.963;;;;
2020/02/18 06:49:21;;;;;;;6.1;1.7;;;;;;;7.58;76.39258;1013.078;;;;
2020/02/18 06:51:46;;;;;;;4.2;1.2;;;;;;;7.51;77.02637;1013.128;;;;
2020/02/18 06:54:11;;;;;;;4.9;1.5;;;;;;;7.48;77.02148;1013.132;;;;
2020/02/18 06:56:36;;;;;;;5.4;1.6;;;;;;;7.46;76.67871;1013.22;;;;
2020/02/18 06:59:01;;;;;;;6.4;2.1;;;;;;;7.47;76.79395;1013.216;;;;
2020/02/18 07:01:29;;;;;;;4.6;1.5;;;;;;;7.48;76.94141;1013.295;;;;
2020/02/18 07:03:52;;;;;;;5.5;1.5;;;;;;;7.52;76.83594;1013.247;;;;
2020/02/18 07:06:17;;;;;;;5.3;1.5;;;;;;;7.47;76.81543;1013.304;;;;
2020/02/18 07:11:20;;;;;;;5.6;1.7;;;;;;;7.52;76.50684;1013.218;;;;
2020/02/18 07:13:32;;;;;;;6.2;1.6;;;;;;;7.49;76.47852;1013.387;;;;
2020/02/18 07:15:57;;;;;;;4.2;1.4;;;;;;;7.51;76.49316;1013.435;;;;
2020/02/18 07:18:22;;;;;;;4.2;1.2;;;;;;;7.51;76.0498;1013.372;;;;
2020/02/18 07:20:48;;;;;;;6.7;2.1;;;;;;;7.47;76.69043;1013.414;;;;
2020/02/18 07:23:13;;;;;;;5.4;1.6;;;;;;;7.49;76.79688;1013.487;;;;
2020/02/18 07:25:38;;;;;;;6.2;1.4;;;;;;;7.49;76.68359;1013.469;;;;
2020/02/18 07:28:03;;;;;;;4.4;1.5;;;;;;;7.56;76.94629;1013.394;;;;
2020/02/18 07:30:28;;;;;;;4.3;1.5;;;;;;;7.54;76.375;1013.436;;;;
2020/02/18 07:32:53;;;;;;;5.8;1.5;;;;;;;7.61;75.5791;1013.434;;;;
2020/02/18 07:35:18;;;;;;;4.3;1.3;;;;;;;7.65;75.62109;1013.4;;;;
2020/02/18 07:37:43;;;;;;;4.3;1.7;;;;;;;7.62;76.13867;1013.508;;;;
2020/02/18 07:40:10;;;;;;;4.1;1.8;;;;;;;7.78;75.26758;1013.459;;;;
2020/02/18 07:42:33;;;;;;;7.7;1.4;;;;;;;7.7;75.93555;1013.496;;;;
2020/02/18 07:44:59;;;;;;;4.8;1.2;;;;;;;7.75;74.70508;1013.508;;;;
2020/02/18 07:47:24;;;;;;;4.4;1.4;;;;;;;7.65;74.8252;1013.469;;;;
2020/02/18 07:49:49;;;;;;;5.1;1.2;;;;;;;7.67;74.81641;1013.623;;;;
2020/02/18 07:52:14;;;;;;;6.5;1.6;;;;;;;7.72;74.8125;1013.625;;;;
2020/02/18 07:54:39;;;;;;;5;1.4;;;;;;;7.7;74.76465;1013.68;;;;
2020/02/18 07:57:04;;;;;;;4.1;1.3;;;;;;;7.62;74.67188;1013.625;;;;
2020/02/18 07:59:29;;;;;;;4;1.4;;;;;;;7.78;74.59668;1013.631;;;;
2020/02/18 08:01:54;;;;;;;3.5;1.4;;;;;;;7.79;73.80176;1013.694;;;;
2020/02/18 08:04:19;;;;;;;6.3;1.6;;;;;;;7.78;73.34473;1013.67;;;;
2020/02/18 08:06:44;;;;;;;6.8;1.5;;;;;;;7.83;71.61426;1013.698;;;;
2020/02/18 08:09:09;;;;;;;6;1.7;;;;;;;7.83;72.11426;1013.714;;;;
2020/02/18 08:11:35;;;;;;;5.3;1.5;;;;;;;7.91;70.66992;1013.505;;;;
2020/02/18 08:14:02;;;;;;;5.8;1.6;;;;;;;8.04;71.46582;1013.73;;;;
2020/02/18 08:18:50;;;;;;;5.3;1.7;;;;;;;8.27;70.72949;1013.636;;;;
2020/02/18 08:21:15;;;;;;;5.4;1.7;;;;;;;8.28;70.80078;1013.637;;;;
2020/02/18 08:23:40;;;;;;;5.6;1.6;;;;;;;8.21;70.53809;1013.68;;;;
2020/02/18 08:26:05;;;;;;;5.9;1.8;;;;;;;8.39;70.15723;1013.542;;;;
2020/02/18 08:28:30;;;;;;;5.6;1.6;;;;;;;8.7;70.12793;1013.634;;;;
2020/02/18 08:30:56;;;;;;;5.7;1.7;;;;;;;8.53;69.87207;1013.608;;;;
2020/02/18 08:33:21;;;;;;;6.5;1.8;;;;;;;9.35;68.20117;1013.646;;;;
2020/02/18 08:35:46;;;;;;;4.3;1.4;;;;;;;9.74;65.29199;1013.75;;;;
2020/02/18 08:38:11;;;;;;;3.8;1.6;;;;;;;9.15;66.56055;1013.677;;;;
2020/02/18 08:40:36;;;;;;;5.7;1.6;;;;;;;8.99;66.95801;1013.687;;;;
2020/02/18 08:43:01;;;;;;;7.9;1.9;;;;;;;9.37;65.81836;1013.705;;;;
2020/02/18 08:45:26;;;;;;;7.4;1.7;;;;;;;9.88;64.12598;1013.805;;;;
2020/02/18 08:47:51;;;;;;;5.6;1.6;;;;;;;10.87;60.60547;1013.774;;;;
2020/02/18 08:50:16;;;;;;;4.5;1.5;;;;;;;11.31;58.47559;1013.924;;;;
2020/02/18 08:52:42;;;;;;;4.1;1.4;;;;;;;11.59;56.9209;1013.888;;;;
2020/02/18 08:55:07;;;;;;;5.4;1.5;;;;;;;10.98;58.08984;1013.953;;;;
2020/02/18 08:57:32;;;;;;;5.9;1.4;;;;;;;10.99;58.90332;1013.942;;;;
2020/02/18 08:59:57;;;;;;;5.4;1.7;;;;;;;10.73;59.86523;1013.998;;;;
2020/02/18 09:02:22;;;;;;;4.5;1.6;;;;;;;10.39;61.29297;1013.99;;;;
2020/02/18 09:04:47;;;;;;;4.3;1.3;;;;;;;10.29;61.27832;1014.007;;;;
2020/02/18 09:07:12;;;;;;;5.3;1.6;;;;;;;9.64;62.93457;1013.966;;;;
2020/02/18 09:09:38;;;;;;;4.7;1.7;;;;;;;9.41;64.31934;1014.033;;;;
2020/02/18 09:13:36;;;;;;;4.7;1.6;;;;;;;9.61;63.50195;1014.182;;;;
2020/02/18 09:20:16;;;;;;;5;1.4;;;;;;;9.04;63.80469;1014.019;;;;
2020/02/18 09:23:28;;;;;;;5.4;1.6;;;;;;;10.03;62.19238;1014.196;;;;
2020/02/18 09:26:39;;;;;;;5.8;1.6;;;;;;;10.42;59.87891;1014.191;;;;
2020/02/18 09:29:49;;;;;;;4.2;1.5;;;;;;;10.74;59.93555;1014.213;;;;
2020/02/18 09:33:01;;;;;;;6.2;1.6;;;;;;;10.17;61.35352;1014.174;;;;
2020/02/18 09:36:12;;;;;;;4.2;1.6;;;;;;;9.53;63.79883;1014.279;;;;
2020/02/18 09:39:23;;;;;;;4.2;1.5;;;;;;;9.41;65.07129;1014.341;;;;
2020/02/18 09:42:34;;;;;;;4.9;1.4;;;;;;;9.32;65.67383;1014.19;;;;
2020/02/18 09:45:44;;;;;;;5.7;1.8;;;;;;;9.14;66.55957;1014.32;;;;
2020/02/18 09:48:55;;;;;;;4.8;1.6;;;;;;;9.22;67.24414;1014.378;;;;
2020/02/18 09:52:05;;;;;;;4.2;1.4;;;;;;;8.98;67.5166;1014.303;;;;
2020/02/18 09:55:16;;;;;;;5.3;1.5;;;;;;;9.12;67.79883;1014.318;;;;
2020/02/18 09:58:27;;;;;;;5;1.7;;;;;;;9.02;67.60254;1014.303;;;;
2020/02/18 10:01:42;;;;;;;4.3;1.6;;;;;;;9.17;66.16602;1014.275;;;;
2020/02/18 10:04:53;;;;;;;4;1.4;;;;;;;9.18;66.7832;1014.252;;;;
2020/02/18 10:08:04;;;;;;;3.5;1.5;;;;;;;8.98;68.31445;1014.222;;;;
2020/02/18 10:11:14;;;;;;;6.4;2;;;;;;;9.04;68.09473;1014.17;;;;
2020/02/18 10:14:25;;;;;;;7;1.9;;;;;;;8.88;68.21875;1014.189;;;;
2020/02/18 10:17:36;;;;;;;4.3;1.9;;;;;;;8.86;68.21582;1014.094;;;;
2020/02/18 10:20:49;;;;;;;6.5;1.7;;;;;;;8.71;68.7959;1014.16;;;;
2020/02/18 10:23:59;;;;;;;5.6;1.9;;;;;;;8.64;69.30859;1014.272;;;;
2020/02/18 10:27:10;;;;;;;7.5;2;;;;;;;8.7;69.4209;1014.299;;;;
2020/02/18 10:30:20;;;;;;;4.9;1.5;;;;;;;8.53;69.65527;1014.378;;;;
2020/02/18 10:33:31;;;;;;;7.2;1.9;;;;;;;8.24;71.62402;1014.351;;;;
2020/02/18 10:36:42;;;;;;;6.6;2.2;;;;;;;8.29;72.22461;1014.407;;;;
2020/02/18 10:39:53;;;;;;;5;1.5;;;;;;;8.46;72.27734;1014.37;;;;
2020/02/18 10:43:06;;;;;;;6.9;1.8;;;;;;;8.85;70.84863;1014.397;;;;
2020/02/18 10:46:16;;;;;;;8.7;2;;;;;;;8.92;70.76855;1014.426;;;;
2020/02/18 10:49:27;;;;;;;7;1.9;;;;;;;8.84;71.50781;1014.37;;;;
2020/02/18 10:52:38;;;;;;;5.9;1.8;;;;;;;9.01;69.56152;1014.335;;;;
2020/02/18 10:55:50;;;;;;;6.2;1.7;;;;;;;9.16;69.14258;1014.273;;;;
2020/02/18 10:59:01;;;;;;;6;1.8;;;;;;;8.79;68.97949;1014.244;;;;
2020/02/18 11:02:12;;;;;;;5;1.5;;;;;;;8.29;69.44727;1014.189;;;;
2020/02/18 11:05:22;;;;;;;6.4;1.6;;;;;;;8.34;69.39844;1014.213;;;;
2020/02/18 11:08:34;;;;;;;7.6;1.7;;;;;;;8.35;69.87695;1014.183;;;;
2020/02/18 11:15:25;;;;;;;5.9;1.5;;;;;;;9;67.17773;1014.082;;;;
2020/02/18 11:21:30;;;;;;;6.4;1.7;;;;;;;9.21;66.35352;1014.011;;;;
2020/02/18 11:24:42;;;;;;;4.5;1.7;;;;;;;9.43;65.0293;1013.975;;;;
2020/02/18 11:27:52;;;;;;;5.3;1.6;;;;;;;9.83;64.97559;1013.955;;;;
2020/02/18 11:31:03;;;;;;;4.8;1.6;;;;;;;9.75;62.95215;1013.997;;;;
2020/02/18 11:34:13;;;;;;;5.6;1.8;;;;;;;10.03;61.4248;1013.923;;;;
2020/02/18 11:37:25;;;;;;;5.3;1.6;;;;;;;10.48;60.49414;1013.917;;;;
2020/02/18 11:40:35;;;;;;;6.1;1.9;;;;;;;9.89;58.1377;1013.868;;;;
2020/02/18 11:43:45;;;;;;;5.5;1.9;;;;;;;10.03;57.97266;1013.871;;;;
2020/02/18 11:47:14;;;;;;;6;2;;;;;;;9.83;57.66016;1013.787;;;;
2020/02/18 11:50:25;;;;;;;6.5;1.7;;;;;;;9.67;56.07227;1013.716;;;;
2020/02/18 11:53:36;;;;;;;4.9;1.5;;;;;;;9.73;55.23535;1013.787;;;;
2020/02/18 11:56:50;;;;;;;6.5;1.6;;;;;;;10.06;54.46582;1013.686;;;;
2020/02/18 12:00:00;;;;;;;5.9;1.7;;;;;;;9.92;55.36328;1013.742;;;;
2020/02/18 12:03:11;;;;;;;4.7;1.3;;;;;;;10;54.17285;1013.52;;;;
2020/02/18 12:06:23;;;;;;;6.3;1.7;;;;;;;10;54.73242;1013.748;;;;
2020/02/18 12:09:33;;;;;;;5.9;1.9;;;;;;;10.17;53.57617;1013.691;;;;
2020/02/18 12:12:43;;;;;;;4.9;1.6;;;;;;;10.23;53.65234;1013.722;;;;
2020/02/18 12:15:54;;;;;;;4.3;1.7;;;;;;;10.18;53.31348;1013.628;;;;
2020/02/18 12:19:20;;;;;;;4.4;1.5;;;;;;;10.13;54.07422;1013.617;;;;
2020/02/18 12:25:59;;;;;;;6.2;1.6;;;;;;;10.43;55.51953;1013.593;;;;
2020/02/18 12:29:10;;;;;;;5.1;1.6;;;;;;;10.64;55.16895;1013.567;;;;
2020/02/18 12:32:20;;;;;;;5.1;1.9;;;;;;;10.71;55.6582;1013.562;;;;
2020/02/18 12:35:31;;;;;;;4.8;1.5;;;;;;;10.46;53.72656;1013.461;;;;
2020/02/18 12:38:42;;;;;;;5.3;1.5;;;;;;;9.82;55.875;1013.456;;;;
2020/02/18 12:41:52;;;;;;;6.1;1.8;;;;;;;9.98;55.85059;1013.487;;;;
2020/02/18 12:45:03;;;;;;;5.4;1.6;;;;;;;9.72;55.94238;1013.429;;;;
2020/02/18 12:48:13;;;;;;;5.1;1.5;;;;;;;9.79;56.41992;1013.56;;;;
2020/02/18 12:51:24;;;;;;;5.3;1.3;;;;;;;9.73;56.48047;1013.49;;;;
2020/02/18 12:54:35;;;;;;;5.2;1.7;;;;;;;9.77;55.57324;1013.317;;;;
2020/02/18 12:57:45;;;;;;;7.5;2;;;;;;;9.92;56.04883;1013.339;;;;
2020/02/18 13:00:59;;;;;;;5;1.4;;;;;;;9.86;55.24121;1013.271;;;;
2020/02/18 13:04:09;;;;;;;6.1;1.5;;;;;;;9.7;54.92285;1013.2;;;;
2020/02/18 13:11:24;;;;;;;5.3;1.4;;;;;;;10.02;55.19141;1013.152;;;;
2020/02/18 13:14:35;;;;;;;5.4;1.8;;;;;;;10.37;54.03613;1013.152;;;;
2020/02/18 13:25:19;;;;;;;6.4;1.6;;;;;;;10.33;52.61133;1012.96;;;;
2020/02/18 13:35:43;;;;;;;5;1.5;;;;;;;10.01;53.04199;1013.118;;;;
2020/02/18 13:38:55;;;;;;;6.2;1.5;;;;;;;10.09;52.77734;1013.072;;;;
2020/02/18 13:42:08;;;;;;;5.3;1.3;;;;;;;10.1;53.03027;1013.012;;;;
2020/02/18 13:45:19;;;;;;;4.5;1.3;;;;;;;10;53.31445;1013.015;;;;
2020/02/18 13:48:30;;;;;;;5.9;1.8;;;;;;;9.8;54.44531;1012.93;;;;
2020/02/18 13:51:41;;;;;;;6.7;1.6;;;;;;;10;54.6416;1012.891;;;;
2020/02/18 13:54:52;;;;;;;7.8;2;;;;;;;10.19;53.95703;1012.884;;;;
2020/02/18 13:58:02;;;;;;;7.3;1.7;;;;;;;10.16;53.90625;1012.92;;;;
2020/02/18 14:01:13;;;;;;;6.1;1.5;;;;;;;10.02;54.45996;1012.925;;;;
2020/02/18 14:04:23;;;;;;;5.7;1.6;;;;;;;10.06;53.68848;1012.895;;;;
2020/02/18 14:07:34;;;;;;;6.4;1.6;;;;;;;9.97;53.5625;1012.882;;;;
2020/02/18 14:10:48;;;;;;;5.8;1.4;;;;;;;10.01;54.00293;1012.868;;;;
2020/02/18 14:13:59;;;;;;;5.6;1.7;;;;;;;10.01;53.96875;1012.8;;;;
2020/02/18 14:17:10;;;;;;;8.6;2;;;;;;;9.84;54.32422;1012.817;;;;
2020/02/18 14:20:21;;;;;;;6.2;1.7;;;;;;;9.9;54.35352;1012.717;;;;
2020/02/18 14:23:32;;;;;;;5.4;2;;;;;;;9.98;54.39844;1012.777;;;;
2020/02/18 14:26:44;;;;;;;5.4;1.6;;;;;;;9.92;55.30566;1012.681;;;;
2020/02/18 14:29:54;;;;;;;7.9;2.2;;;;;;;9.94;54.81543;1012.676;;;;
2020/02/18 14:33:05;;;;;;;5.8;1.8;;;;;;;9.76;55.61621;1012.679;;;;
2020/02/18 14:36:15;;;;;;;6.4;2.2;;;;;;;9.93;55.21582;1012.551;;;;
2020/02/18 14:39:26;;;;;;;5.9;1.6;;;;;;;9.97;55.15137;1012.611;;;;
2020/02/18 14:42:37;;;;;;;5.1;1.7;;;;;;;9.89;54.69531;1012.57;;;;
2020/02/18 14:45:47;;;;;;;5.8;1.7;;;;;;;10.11;54.00391;1012.549;;;;
2020/02/18 14:48:58;;;;;;;5.2;1.6;;;;;;;9.85;53.9707;1012.507;;;;
2020/02/18 14:52:08;;;;;;;6.9;1.5;;;;;;;9.84;53.93555;1012.386;;;;
2020/02/18 14:55:19;;;;;;;5.6;1.7;;;;;;;9.82;54.06934;1012.489;;;;
2020/02/18 14:58:29;;;;;;;6.5;1.9;;;;;;;9.84;54.55176;1012.513;;;;
2020/02/18 15:01:40;;;;;;;6.6;1.7;;;;;;;9.86;54.57813;1012.474;;;;
2020/02/18 15:04:51;;;;;;;5.1;1.7;;;;;;;10.02;54.97461;1012.555;;;;
2020/02/18 15:08:02;;;;;;;7.8;2;;;;;;;10.02;54.16406;1012.571;;;;
2020/02/18 15:11:12;;;;;;;8.3;2;;;;;;;9.79;54.94629;1012.358;;;;
2020/02/18 15:14:24;;;;;;;7.2;1.7;;;;;;;9.81;54.68652;1012.556;;;;
2020/02/18 15:17:35;;;;;;;5.4;1.6;;;;;;;9.81;54.76563;1012.504;;;;
2020/02/18 15:20:46;;;;;;;6.8;1.8;;;;;;;9.84;54.80371;1012.496;;;;
2020/02/18 15:24:07;;;;;;;6.5;1.7;;;;;;;9.59;54.06445;1012.564;;;;
2020/02/18 15:30:51;;;;;;;9.5;2;;;;;;;9.72;53.95508;1012.672;;;;
2020/02/18 15:34:36;;;;;;;7.5;2.2;;;;;;;9.78;54.64746;1012.549;;;;
2020/02/18 15:40:44;;;;;;;6.9;1.8;;;;;;;9.68;54.8291;1012.621;;;;
2020/02/18 15:44:13;;;;;;;5.8;1.7;;;;;;;9.62;55.22266;1012.525;;;;
2020/02/18 15:47:23;;;;;;;5.5;1.9;;;;;;;9.48;55.72949;1012.513;;;;
2020/02/18 15:50:34;;;;;;;6.6;1.5;;;;;;;9.65;55.35059;1012.615;;;;
2020/02/18 15:53:45;;;;;;;5.6;1.5;;;;;;;9.59;55.8457;1012.493;;;;
2020/02/18 15:56:55;;;;;;;5.2;1.8;;;;;;;9.42;56.23438;1012.46;;;;
2020/02/18 16:00:06;;;;;;;6.9;1.8;;;;;;;9.51;56.39551;1012.468;;;;
2020/02/18 16:03:18;;;;;;;5.9;1.6;;;;;;;9.43;56.29297;1012.402;;;;
2020/02/18 16:06:28;;;;;;;6.4;1.6;;;;;;;9.48;56.88281;1012.365;;;;
2020/02/18 16:09:40;;;;;;;5.8;1.8;;;;;;;9.41;57.18164;1012.336;;;;
2020/02/18 16:12:51;;;;;;;7.8;2;;;;;;;9.34;57.24121;1012.366;;;;
2020/02/18 16:16:02;;;;;;;6.5;2.5;;;;;;;9.42;57;1012.286;;;;
2020/02/18 16:19:13;;;;;;;5.9;2;;;;;;;9.33;57.21484;1012.296;;;;
2020/02/18 16:22:24;;;;;;;6.5;1.9;;;;;;;9.33;56.96484;1012.3;;;;
2020/02/18 16:25:34;;;;;;;7.1;2.4;;;;;;;9.33;56.89746;1012.265;;;;
2020/02/18 16:28:45;;;;;;;8.3;2.9;;;;;;;9.39;56.88184;1012.207;;;;
2020/02/18 16:31:56;;;;;;;8.2;2;;;;;;;9.35;56.96777;1012.148;;;;
2020/02/18 16:35:06;;;;;;;7.4;2.2;;;;;;;9.24;57.15918;1012.166;;;;
2020/02/18 16:38:17;;;;;;;7.3;2.2;;;;;;;9.22;57.16699;1012.219;;;;
2020/02/18 16:41:28;;;;;;;5.3;2.2;;;;;;;9.27;57.35645;1012.207;;;;
2020/02/18 16:44:38;;;;;;;7.3;2.3;;;;;;;9.23;56.88477;1012.19;;;;
2020/02/18 16:47:49;;;;;;;5.2;1.9;;;;;;;9.28;56.53711;1012.224;;;;
2020/02/18 16:51:00;;;;;;;7.6;2.3;;;;;;;9.27;56.5459;1012.28;;;;
2020/02/18 16:54:10;;;;;;;4.9;1.9;;;;;;;9.23;56.29004;1012.265;;;;
2020/02/18 16:57:21;;;;;;;5.2;1.9;;;;;;;9.36;55.96484;1012.275;;;;
2020/02/18 17:00:32;;;;;;;5.4;2.1;;;;;;;9.26;56.25977;1012.27;;;;
2020/02/18 17:03:42;;;;;;;5.4;2;;;;;;;9.2;56.60449;1012.276;;;;
2020/02/18 17:06:53;;;;;;;6.5;2;;;;;;;9.18;56.29492;1012.278;;;;
2020/02/18 17:10:04;;;;;;;4.4;1.7;;;;;;;9.24;56.22266;1012.371;;;;
2020/02/18 17:13:19;;;;;;;5.3;1.6;;;;;;;9.29;56.62891;1012.401;;;;
2020/02/18 17:16:30;;;;;;;3.3;1.5;;;;;;;9.15;56.51953;1012.302;;;;
2020/02/18 17:19:40;;;;;;;6.6;1.7;;;;;;;9.22;57.17871;1012.265;;;;
2020/02/18 17:22:52;;;;;;;6.7;2;;;;;;;9.24;56.89648;1012.324;;;;
2020/02/18 17:26:02;;;;;;;6.7;2;;;;;;;9.17;56.77344;1012.289;;;;
2020/02/18 17:29:12;;;;;;;6.7;2.1;;;;;;;9.07;57.92285;1012.301;;;;
2020/02/18 17:32:23;;;;;;;6.3;1.9;;;;;;;9.12;57.4043;1012.289;;;;
2020/02/18 17:35:33;;;;;;;6.5;1.8;;;;;;;9.1;57.49414;1012.239;;;;
2020/02/18 17:38:44;;;;;;;7.8;2.1;;;;;;;9.09;57.74316;1012.324;;;;
2020/02/18 17:41:55;;;;;;;6.2;2.1;;;;;;;8.97;58.08008;1012.313;;;;
2020/02/18 17:45:06;;;;;;;7;2;;;;;;;8.98;58.07129;1012.323;;;;
2020/02/18 17:48:17;;;;;;;4.9;2.1;;;;;;;9;58.1875;1012.352;;;;
2020/02/18 17:51:27;;;;;;;6;2;;;;;;;8.95;58.19141;1012.286;;;;
2020/02/18 17:54:39;;;;;;;5.6;2;;;;;;;8.96;57.97754;1012.296;;;;
2020/02/18 17:57:49;;;;;;;5.6;1.8;;;;;;;9.06;58.11621;1012.27;;;;
2020/02/18 18:00:14;;;;;;;6;2.1;;;;;;;9;58.1543;1012.158;;;;
2020/02/18 18:02:39;;;;;;;7.6;2.8;;;;;;;8.92;57.94824;1012.16;;;;
2020/02/18 18:07:41;;;;;;;5.3;1.9;;;;;;;8.96;58;1012.051;;;;
2020/02/18 18:10:00;;;;;;;5;1.7;;;;;;;8.95;58.26074;1012.123;;;;
2020/02/18 18:12:25;;;;;;;7.7;2.3;;;;;;;8.98;57.5918;1012.105;;;;
2020/02/18 18:14:50;;;;;;;9.8;2.3;;;;;;;8.95;57.90723;1011.976;;;;
2020/02/18 18:17:15;;;;;;;7.4;2;;;;;;;8.93;58.37109;1011.989;;;;
2020/02/18 18:19:40;;;;;;;6.3;2.1;;;;;;;8.99;57.43359;1011.971;;;;
2020/02/18 18:22:05;;;;;;;6.4;2.1;;;;;;;8.96;57.81738;1012;;;;
2020/02/18 18:24:30;;;;;;;6.4;1.9;;;;;;;8.96;58.02246;1012.01;;;;
2020/02/18 18:26:55;;;;;;;6.8;2.2;;;;;;;8.88;58.29688;1012;;;;
2020/02/18 18:29:20;;;;;;;5.7;2.1;;;;;;;8.87;58.35254;1011.928;;;;
2020/02/18 18:31:46;;;;;;;6.2;1.9;;;;;;;8.84;58.62305;1011.922;;;;
2020/02/18 18:34:11;;;;;;;5.9;2;;;;;;;8.85;58.37402;1011.949;;;;
2020/02/18 18:36:36;;;;;;;6.2;1.9;;;;;;;8.8;59.34668;1011.843;;;;